Terminal Aerodrome Forecast
Issued by NWS Goodland, KS

Home | Current Version | Previous Version | Text Only | Print | Product List | Glossary On
Versions: 1 2 3 4 5 6 7 8 9 10 11 12 13 14 15 16 17 18 19 20
000
FTUS43 KGLD 201720
TAFGLD
TAF
KGLD 201720Z 2018/2118 04011KT P6SM OVC015
      TEMPO 2018/2021 BKN035
     FM202100 03011KT P6SM BKN035
     FM210200 04008KT P6SM OVC025
     FM210700 VRB05KT P6SM OVC015
     FM211400 15007KT P6SM VCSH SCT015 BKN030=

USA.gov is the U.S. government's official web portal to all federal, state and local government web resources and services.